createdAt,value
2023-05-10T00:03:00.092Z,11.9
2023-05-10T00:18:00.020Z,11.9
2023-05-10T00:33:00.065Z,11.9
2023-05-10T00:48:00.017Z,11.9
2023-05-10T01:03:00.060Z,11.9
2023-05-10T01:18:00.083Z,11.9
2023-05-10T01:33:00.057Z,11.9
2023-05-10T01:48:00.066Z,11.8
2023-05-10T02:03:00.063Z,11.8
2023-05-10T02:18:00.050Z,11.8
2023-05-10T02:33:00.045Z,11.6
2023-05-10T02:48:00.081Z,11.6
2023-05-10T03:03:00.119Z,11.4
2023-05-10T03:18:00.036Z,11.3
2023-05-10T03:33:00.019Z,11.2
2023-05-10T03:48:00.051Z,11.2
2023-05-10T04:03:00.127Z,11.2
2023-05-10T04:18:00.054Z,11.2
2023-05-10T04:33:00.037Z,11.3
2023-05-10T04:48:00.050Z,11.3
2023-05-10T05:03:00.056Z,11.4
2023-05-10T05:18:00.105Z,11.4
2023-05-10T05:33:00.037Z,11.5
2023-05-10T05:48:00.056Z,11.5
2023-05-10T06:03:00.112Z,11.4
2023-05-10T06:18:00.145Z,11.5
2023-05-10T06:33:00.087Z,11.7
2023-05-10T06:48:00.041Z,11.7
2023-05-10T07:03:00.040Z,11.6
2023-05-10T07:18:00.112Z,11.4
2023-05-10T07:33:00.042Z,11.2
2023-05-10T07:48:00.051Z,11.2
2023-05-10T08:03:00.077Z,11.5
2023-05-10T08:18:00.030Z,11.4
2023-05-10T08:33:00.052Z,11.6
2023-05-10T08:48:00.086Z,11.5
2023-05-10T09:03:00.093Z,11.2
2023-05-10T09:18:00.032Z,11.2
2023-05-10T09:33:00.139Z,11.3
2023-05-10T09:48:00.040Z,11.8
2023-05-10T10:03:00.020Z,11.8
2023-05-10T10:18:00.069Z,12.1
2023-05-10T10:33:00.031Z,12.1
2023-05-10T10:48:00.028Z,12.8
2023-05-10T11:03:00.051Z,13.4
2023-05-10T11:18:00.049Z,13.5
2023-05-10T11:33:00.046Z,13.8
2023-05-10T11:48:00.043Z,13.8
2023-05-10T12:03:00.071Z,14.2
2023-05-10T12:18:00.162Z,14.8
2023-05-10T12:33:00.007Z,14.8
2023-05-10T12:48:00.037Z,14.7
2023-05-10T13:03:00.016Z,15.1
2023-05-10T13:18:00.012Z,15.3
2023-05-10T13:33:00.044Z,14.9
2023-05-10T13:48:00.067Z,15.1
2023-05-10T14:03:00.042Z,15.1
2023-05-10T14:18:00.094Z,14.6
2023-05-10T14:33:00.024Z,14.8
2023-05-10T14:48:00.028Z,15.4
2023-05-10T15:03:00.094Z,15.9
2023-05-10T15:18:00.034Z,16.2
2023-05-10T15:33:00.005Z,15.6
2023-05-10T15:48:00.018Z,15.4
2023-05-10T16:03:00.045Z,14.6
2023-05-10T16:18:00.096Z,14.8
2023-05-10T16:33:00.022Z,15.4
2023-05-10T16:48:00.081Z,15.6
2023-05-10T17:03:00.098Z,15.7
2023-05-10T17:18:00.158Z,16.1
2023-05-10T17:33:00.047Z,17.1
2023-05-10T17:48:00.034Z,17
2023-05-10T18:02:59.990Z,15.9
2023-05-10T18:18:00.067Z,14.9
2023-05-10T18:33:00.053Z,14.2
2023-05-10T18:48:00.062Z,13.8
2023-05-10T19:03:00.031Z,13.7
2023-05-10T19:18:00.082Z,13.5
2023-05-10T19:33:00.044Z,13.3
2023-05-10T19:48:00.060Z,13
2023-05-10T20:03:00.114Z,12.6
2023-05-10T20:18:00.044Z,12.7
2023-05-10T20:33:00.034Z,12.4
2023-05-10T20:48:00.071Z,12.4
2023-05-10T21:03:00.036Z,12.2
2023-05-10T21:18:00.120Z,12.3
2023-05-10T21:33:00.131Z,12.1
2023-05-10T21:48:00.069Z,11.9
2023-05-10T22:03:00.028Z,11.7
2023-05-10T22:18:00.029Z,11.4
2023-05-10T22:33:00.064Z,11.5
2023-05-10T22:48:00.063Z,11.3
2023-05-10T23:03:00.014Z,11.4
2023-05-10T23:18:00.015Z,11.4
2023-05-10T23:33:00.059Z,11.4
2023-05-10T23:48:00.060Z,11.2
